createdAt,value
2023-01-09T00:01:21.871Z,13.75
2023-01-09T00:03:52.604Z,13.75
2023-01-09T00:06:23.163Z,14.12
2023-01-09T00:08:53.989Z,13.84
2023-01-09T00:11:25.526Z,13.82
2023-01-09T00:13:57.641Z,14.08
2023-01-09T00:16:28.874Z,14.06
2023-01-09T00:19:01.175Z,13.83
2023-01-09T00:21:32.333Z,13.92
2023-01-09T00:24:03.756Z,13.15
2023-01-09T00:26:34.710Z,14.03
2023-01-09T00:29:05.437Z,13.59
2023-01-09T00:31:36.247Z,14.30
2023-01-09T00:34:12.817Z,14.25
2023-01-09T00:36:43.026Z,13.83
2023-01-09T00:39:13.562Z,14.18
2023-01-09T00:41:46.993Z,14.39
2023-01-09T00:44:23.383Z,14.04
2023-01-09T00:46:59.623Z,14.49
2023-01-09T00:49:33.624Z,14.45
2023-01-09T00:52:07.700Z,14.64
2023-01-09T00:54:39.171Z,14.87
2023-01-09T00:57:12.633Z,14.23
2023-01-09T00:59:46.859Z,14.53
2023-01-09T01:02:17.668Z,14.26
2023-01-09T01:05:06.171Z,13.91
2023-01-09T01:07:39.750Z,13.87
2023-01-09T01:10:20.361Z,13.68
2023-01-09T01:12:51.901Z,13.75
2023-01-09T01:15:22.448Z,14.31
2023-01-09T01:17:53.399Z,13.98
2023-01-09T01:20:24.855Z,13.24
2023-01-09T01:22:55.392Z,13.66
2023-01-09T01:25:25.933Z,13.67
2023-01-09T01:27:57.593Z,13.26
2023-01-09T01:30:28.402Z,14.28
2023-01-09T01:33:00.623Z,13.90
2023-01-09T01:35:31.171Z,14.42
2023-01-09T01:38:01.832Z,13.52
2023-01-09T01:40:32.667Z,13.20
2023-01-09T01:43:03.466Z,13.82
2023-01-09T01:45:34.666Z,13.81
2023-01-09T01:48:14.081Z,13.28
2023-01-09T01:50:50.574Z,13.43
2023-01-09T01:53:33.696Z,13.26
2023-01-09T01:56:13.379Z,14.18
2023-01-09T01:58:53.241Z,14.07
2023-01-09T02:01:26.339Z,13.83
2023-01-09T02:03:59.113Z,13.49
2023-01-09T02:06:32.023Z,13.71
2023-01-09T02:09:05.853Z,13.98
2023-01-09T02:11:36.574Z,13.79
2023-01-09T02:14:08.251Z,14.31
2023-01-09T02:17:05.248Z,14.34
2023-01-09T02:19:58.007Z,14.15
2023-01-09T02:22:40.650Z,13.68
2023-01-09T02:25:35.604Z,13.73
2023-01-09T02:28:24.341Z,13.77
2023-01-09T02:31:22.425Z,13.39
2023-01-09T02:34:30.852Z,13.53
2023-01-09T02:37:08.400Z,13.45
2023-01-09T02:39:44.543Z,13.40
2023-01-09T02:42:27.341Z,13.31
2023-01-09T02:44:57.901Z,13.52
2023-01-09T02:47:39.999Z,13.59
2023-01-09T02:50:13.498Z,13.08
2023-01-09T02:53:11.238Z,12.91
2023-01-09T02:55:47.404Z,13.20
2023-01-09T02:58:30.193Z,13.44
2023-01-09T03:01:24.618Z,14.03
2023-01-09T03:04:10.169Z,13.85
2023-01-09T03:06:52.770Z,13.31
2023-01-09T03:09:27.597Z,13.43
2023-01-09T03:12:04.071Z,14.10
2023-01-09T03:14:36.548Z,14.08
2023-01-09T03:17:10.021Z,14.19
2023-01-09T03:19:43.188Z,14.40
2023-01-09T03:22:14.110Z,14.44
2023-01-09T03:24:44.659Z,14.32
2023-01-09T03:27:16.164Z,13.40
2023-01-09T03:29:46.735Z,14.15
2023-01-09T03:32:20.583Z,13.25
2023-01-09T03:34:51.489Z,12.59
2023-01-09T03:37:23.128Z,13.53
2023-01-09T03:39:53.710Z,13.01
2023-01-09T03:42:24.975Z,13.34
2023-01-09T03:44:58.841Z,13.18
2023-01-09T03:47:29.407Z,13.02
2023-01-09T03:50:01.251Z,13.20
2023-01-09T03:52:31.930Z,12.59
2023-01-09T03:55:04.012Z,12.63
2023-01-09T03:57:35.204Z,12.97
2023-01-09T04:00:06.348Z,12.53
2023-01-09T04:02:36.973Z,13.11
2023-01-09T04:05:08.572Z,13.40
2023-01-09T04:07:42.285Z,12.82
2023-01-09T04:10:13.844Z,13.30
2023-01-09T04:12:44.369Z,12.90
2023-01-09T04:15:14.911Z,12.96
2023-01-09T04:17:45.789Z,13.00
2023-01-09T04:20:18.607Z,12.71
2023-01-09T04:22:49.545Z,12.91
2023-01-09T04:25:20.162Z,12.72
2023-01-09T04:27:51.032Z,13.02
2023-01-09T04:30:22.177Z,12.90
2023-01-09T04:32:54.919Z,13.37
2023-01-09T04:35:25.640Z,12.84
2023-01-09T04:37:56.189Z,13.22
2023-01-09T04:40:26.702Z,12.70
2023-01-09T04:42:57.468Z,13.29
2023-01-09T04:45:29.052Z,13.28
2023-01-09T04:48:00.183Z,13.15
2023-01-09T04:50:31.511Z,12.75
2023-01-09T04:53:02.193Z,13.55
2023-01-09T04:55:32.916Z,13.15
2023-01-09T04:58:07.770Z,13.29
2023-01-09T05:00:38.525Z,13.19
2023-01-09T05:03:09.124Z,13.43
2023-01-09T05:05:39.833Z,13.13
2023-01-09T05:08:10.903Z,13.04
2023-01-09T05:10:44.758Z,13.33
2023-01-09T05:13:15.297Z,13.08
2023-01-09T05:15:45.823Z,13.54
2023-01-09T05:18:16.643Z,14.18
2023-01-09T05:20:47.628Z,13.51
2023-01-09T05:23:20.371Z,14.35
2023-01-09T05:25:55.323Z,14.49
2023-01-09T05:28:27.516Z,14.02
2023-01-09T05:31:01.801Z,14.02
2023-01-09T05:33:34.560Z,14.16
2023-01-09T05:36:08.660Z,13.66
2023-01-09T05:38:42.647Z,14.48
2023-01-09T05:41:14.787Z,14.16
2023-01-09T05:43:47.888Z,13.75
2023-01-09T05:46:20.210Z,13.41
2023-01-09T05:48:56.183Z,13.75
2023-01-09T05:51:28.849Z,13.40
2023-01-09T05:54:01.160Z,13.11
2023-01-09T05:56:33.596Z,13.12
2023-01-09T05:59:05.145Z,13.29
2023-01-09T06:01:36.632Z,12.92
2023-01-09T06:04:10.420Z,13.04
2023-01-09T06:06:47.265Z,12.62
2023-01-09T06:09:20.081Z,12.95
2023-01-09T06:11:59.584Z,13.04
2023-01-09T06:14:32.379Z,13.29
2023-01-09T06:17:07.769Z,13.66
2023-01-09T06:19:44.258Z,13.61
2023-01-09T06:22:19.489Z,13.95
2023-01-09T06:25:03.091Z,14.32
2023-01-09T06:27:43.625Z,13.49
2023-01-09T06:30:16.147Z,12.74
2023-01-09T06:32:54.471Z,12.53
2023-01-09T06:35:29.544Z,12.04
2023-01-09T06:38:08.419Z,12.68
2023-01-09T06:40:44.450Z,13.10
2023-01-09T06:43:16.060Z,12.89
2023-01-09T06:45:48.252Z,13.35
2023-01-09T06:48:21.693Z,12.40
2023-01-09T06:50:55.873Z,12.11
2023-01-09T06:53:27.449Z,12.18
2023-01-09T06:56:00.898Z,13.06
2023-01-09T06:58:32.668Z,12.38
2023-01-09T07:01:07.063Z,12.66
2023-01-09T07:03:39.189Z,12.36
2023-01-09T07:06:15.334Z,12.43
2023-01-09T07:08:47.875Z,12.04
2023-01-09T07:11:20.671Z,11.80
2023-01-09T07:13:54.779Z,11.85
2023-01-09T07:16:34.604Z,12.95
2023-01-09T07:19:08.407Z,12.49
2023-01-09T07:21:42.289Z,12.97
2023-01-09T07:24:16.520Z,12.56
2023-01-09T07:26:50.385Z,12.84
2023-01-09T07:29:33.597Z,12.54
2023-01-09T07:32:09.933Z,12.61
2023-01-09T07:34:43.426Z,12.00
2023-01-09T07:37:19.968Z,12.58
2023-01-09T07:39:51.033Z,12.40
2023-01-09T07:42:21.569Z,12.28
2023-01-09T07:44:52.552Z,12.43
2023-01-09T07:47:24.404Z,12.14
2023-01-09T07:49:54.987Z,12.75
2023-01-09T07:52:25.658Z,13.33
2023-01-09T07:54:56.274Z,12.76
2023-01-09T07:57:26.832Z,13.47
2023-01-09T07:59:57.626Z,13.84
2023-01-09T08:02:28.663Z,13.26
2023-01-09T08:04:59.391Z,13.51
2023-01-09T08:07:30.030Z,13.29
2023-01-09T08:10:00.551Z,13.49
2023-01-09T08:12:31.182Z,13.42
2023-01-09T08:15:01.792Z,13.59
2023-01-09T08:17:32.482Z,13.60
2023-01-09T08:20:03.061Z,13.06
2023-01-09T08:22:33.623Z,12.77
2023-01-09T08:25:04.319Z,13.43
2023-01-09T08:27:35.076Z,13.43
2023-01-09T08:30:05.974Z,12.93
2023-01-09T08:32:37.548Z,13.01
2023-01-09T08:35:10.224Z,13.39
2023-01-09T08:37:40.780Z,13.83
2023-01-09T08:40:12.216Z,14.02
2023-01-09T08:43:01.139Z,13.58
2023-01-09T08:45:50.070Z,13.25
2023-01-09T08:48:20.629Z,13.44
2023-01-09T08:50:51.259Z,13.66
2023-01-09T08:53:22.201Z,13.52
2023-01-09T08:55:52.767Z,13.69
2023-01-09T08:58:23.312Z,13.74
2023-01-09T09:00:53.845Z,13.81
2023-01-09T09:03:24.389Z,13.42
2023-01-09T09:05:56.057Z,13.92
2023-01-09T09:08:26.635Z,13.83
2023-01-09T09:10:57.575Z,13.86
2023-01-09T09:13:28.235Z,13.98
2023-01-09T09:15:58.798Z,13.84
2023-01-09T09:18:29.386Z,13.55
2023-01-09T09:21:01.089Z,13.37
2023-01-09T09:23:31.663Z,13.13
2023-01-09T09:26:02.196Z,13.26
2023-01-09T09:28:32.784Z,13.85
2023-01-09T09:31:04.894Z,13.57
2023-01-09T09:33:35.544Z,13.41
2023-01-09T09:36:06.404Z,13.74
2023-01-09T09:38:36.945Z,13.22
2023-01-09T09:41:42.829Z,13.94
2023-01-09T09:44:53.546Z,14.04
2023-01-09T09:47:28.493Z,14.02
2023-01-09T09:50:23.410Z,13.93
2023-01-09T09:53:09.034Z,13.86
2023-01-09T09:55:41.715Z,13.62
2023-01-09T09:58:30.117Z,13.28
2023-01-09T10:01:02.662Z,13.92
2023-01-09T10:03:54.268Z,13.65
2023-01-09T10:06:43.176Z,13.60
2023-01-09T10:09:32.539Z,14.21
2023-01-09T10:12:08.633Z,14.08
2023-01-09T10:14:39.969Z,14.48
2023-01-09T10:17:31.248Z,14.36
2023-01-09T10:20:19.459Z,14.05
2023-01-09T10:23:11.160Z,13.60
2023-01-09T10:26:00.070Z,14.09
2023-01-09T10:28:39.152Z,14.08
2023-01-09T10:31:24.843Z,13.85
2023-01-09T10:34:16.049Z,13.56
2023-01-09T10:37:04.535Z,13.79
2023-01-09T10:39:52.965Z,14.27
2023-01-09T10:42:48.527Z,13.85
2023-01-09T10:45:28.623Z,14.00
2023-01-09T10:48:22.816Z,14.04
2023-01-09T10:50:57.065Z,14.45
2023-01-09T10:53:39.232Z,14.37
2023-01-09T10:56:30.843Z,13.84
2023-01-09T10:59:01.846Z,13.47
2023-01-09T11:01:37.191Z,14.22
2023-01-09T11:04:10.674Z,14.58
2023-01-09T11:06:50.408Z,14.89
2023-01-09T11:09:21.069Z,14.34
2023-01-09T11:11:52.885Z,14.46
2023-01-09T11:14:30.755Z,14.04
2023-01-09T11:17:04.411Z,14.70
2023-01-09T11:19:35.042Z,15.23
2023-01-09T11:22:19.786Z,15.48
2023-01-09T11:24:53.211Z,15.03
2023-01-09T11:27:26.055Z,15.14
2023-01-09T11:30:17.685Z,15.47
2023-01-09T11:32:49.236Z,15.80
2023-01-09T11:35:27.232Z,15.48
2023-01-09T11:38:03.644Z,15.38
2023-01-09T11:40:39.749Z,15.34
2023-01-09T11:43:15.959Z,14.94
2023-01-09T11:46:00.509Z,14.96
2023-01-09T11:48:33.139Z,15.52
2023-01-09T11:51:06.904Z,15.78
2023-01-09T11:53:40.397Z,15.34
2023-01-09T11:56:12.789Z,15.54
2023-01-09T11:58:43.728Z,15.16
2023-01-09T12:01:28.974Z,15.80
2023-01-09T12:04:23.544Z,15.10
2023-01-09T12:07:05.833Z,15.85
2023-01-09T12:10:13.821Z,16.19
2023-01-09T12:12:53.293Z,16.44
2023-01-09T12:15:29.727Z,15.45
2023-01-09T12:18:06.214Z,16.14
2023-01-09T12:20:48.260Z,15.17
2023-01-09T12:23:54.819Z,15.72
2023-01-09T12:26:31.278Z,15.64
2023-01-09T12:29:38.086Z,15.68
2023-01-09T12:32:26.373Z,15.31
2023-01-09T12:35:25.439Z,15.78
2023-01-09T12:38:16.946Z,16.33
2023-01-09T12:41:07.874Z,16.26
2023-01-09T12:43:41.519Z,16.03
2023-01-09T12:46:20.223Z,15.96
2023-01-09T12:48:56.674Z,16.19
2023-01-09T12:51:32.724Z,15.81
2023-01-09T12:54:08.818Z,16.18
2023-01-09T12:56:42.262Z,16.24
2023-01-09T12:59:33.072Z,16.60
2023-01-09T13:02:16.435Z,16.48
2023-01-09T13:04:55.871Z,16.69
2023-01-09T13:07:29.385Z,16.48
2023-01-09T13:10:05.849Z,16.05
2023-01-09T13:12:39.337Z,16.33
2023-01-09T13:15:12.918Z,16.49
2023-01-09T13:17:49.375Z,17.05
2023-01-09T13:20:39.165Z,17.16
2023-01-09T13:23:16.313Z,16.45
2023-01-09T13:25:49.757Z,17.19
2023-01-09T13:28:47.290Z,17.15
2023-01-09T13:31:24.925Z,16.62
2023-01-09T13:33:58.907Z,16.88
2023-01-09T13:36:34.965Z,16.39
2023-01-09T13:39:07.757Z,16.50
2023-01-09T13:41:58.728Z,16.65
2023-01-09T13:44:31.449Z,16.82
2023-01-09T13:47:03.950Z,16.65
2023-01-09T13:49:37.450Z,16.92
2023-01-09T13:52:27.412Z,16.84
2023-01-09T13:55:00.947Z,17.10
2023-01-09T13:57:37.140Z,16.67
2023-01-09T14:00:22.188Z,16.70
2023-01-09T14:02:58.053Z,16.70
2023-01-09T14:05:31.651Z,17.07
2023-01-09T14:08:20.046Z,16.87
2023-01-09T14:10:57.472Z,16.75
2023-01-09T14:13:34.356Z,16.50
2023-01-09T14:16:20.767Z,16.35
2023-01-09T14:18:57.631Z,16.48
2023-01-09T14:21:29.745Z,16.61
2023-01-09T14:24:07.240Z,16.41
2023-01-09T14:26:49.139Z,16.52
2023-01-09T14:29:34.542Z,16.79
2023-01-09T14:32:29.165Z,17.23
2023-01-09T14:35:10.913Z,16.96
2023-01-09T14:37:43.678Z,16.89
2023-01-09T14:40:20.131Z,16.92
2023-01-09T14:42:53.611Z,16.89
2023-01-09T14:45:26.811Z,16.87
2023-01-09T14:48:06.131Z,16.62
2023-01-09T14:50:53.189Z,16.63
2023-01-09T14:53:32.764Z,16.49
2023-01-09T14:56:06.843Z,16.13
2023-01-09T14:58:38.750Z,16.16
2023-01-09T15:01:15.421Z,16.29
2023-01-09T15:03:56.664Z,16.31
2023-01-09T15:06:31.439Z,16.36
2023-01-09T15:09:10.841Z,16.27
2023-01-09T15:11:42.311Z,16.18
2023-01-09T15:14:34.048Z,15.37
2023-01-09T15:17:05.551Z,15.49
2023-01-09T15:19:36.442Z,14.99
2023-01-09T15:22:09.619Z,14.67
2023-01-09T15:24:40.201Z,14.96
2023-01-09T15:27:23.116Z,15.27
2023-01-09T15:29:54.143Z,15.00
2023-01-09T15:32:27.739Z,15.75
2023-01-09T15:34:59.188Z,15.97
2023-01-09T15:37:32.657Z,16.24
2023-01-09T15:40:06.406Z,15.75
2023-01-09T15:42:58.005Z,15.52
2023-01-09T15:45:35.411Z,15.17
2023-01-09T15:48:21.135Z,14.83
2023-01-09T15:51:13.593Z,15.13
2023-01-09T15:53:46.517Z,14.84
2023-01-09T15:56:20.817Z,15.19
2023-01-09T15:58:55.686Z,15.35
2023-01-09T16:01:37.768Z,15.87
2023-01-09T16:04:17.394Z,15.16
2023-01-09T16:06:52.804Z,15.61
2023-01-09T16:09:26.684Z,15.53
2023-01-09T16:12:01.012Z,16.48
2023-01-09T16:14:38.810Z,16.84
2023-01-09T16:17:12.293Z,16.36
2023-01-09T16:19:54.663Z,15.69
2023-01-09T16:22:30.524Z,16.11
2023-01-09T16:25:03.562Z,15.63
2023-01-09T16:27:36.827Z,14.96
2023-01-09T16:30:09.024Z,15.08
2023-01-09T16:32:51.602Z,15.04
2023-01-09T16:35:24.494Z,14.86
2023-01-09T16:37:55.074Z,15.01
2023-01-09T16:40:28.188Z,14.89
2023-01-09T16:43:01.540Z,15.13
2023-01-09T16:45:44.368Z,15.00
2023-01-09T16:48:18.353Z,15.25
2023-01-09T16:50:48.875Z,15.99
2023-01-09T16:53:22.875Z,15.73
2023-01-09T16:55:56.101Z,16.17
2023-01-09T16:58:32.312Z,15.86
2023-01-09T17:01:03.002Z,16.05
2023-01-09T17:03:33.728Z,15.70
2023-01-09T17:06:06.499Z,15.34
2023-01-09T17:08:38.754Z,15.60
2023-01-09T17:11:13.312Z,15.78
2023-01-09T17:13:43.909Z,15.75
2023-01-09T17:16:15.732Z,15.29
2023-01-09T17:18:46.813Z,15.58
2023-01-09T17:21:23.816Z,15.55
2023-01-09T17:24:12.617Z,14.66
2023-01-09T17:26:56.352Z,15.39
2023-01-09T17:29:28.460Z,15.03
2023-01-09T17:31:59.776Z,15.53
2023-01-09T17:34:30.420Z,15.53
2023-01-09T17:37:03.102Z,15.89
2023-01-09T17:39:33.261Z,15.40
2023-01-09T17:42:03.807Z,15.06
2023-01-09T17:44:34.377Z,15.19
2023-01-09T17:47:06.234Z,15.53
2023-01-09T17:49:37.934Z,15.69
2023-01-09T17:52:08.565Z,15.55
2023-01-09T17:54:39.355Z,16.04
2023-01-09T17:57:12.797Z,15.79
2023-01-09T17:59:45.024Z,15.80
2023-01-09T18:02:19.747Z,15.58
2023-01-09T18:04:50.332Z,15.56
2023-01-09T18:07:20.859Z,15.36
2023-01-09T18:09:51.444Z,14.99
2023-01-09T18:12:22.013Z,15.99
2023-01-09T18:14:53.889Z,15.42
2023-01-09T18:17:24.518Z,16.02
2023-01-09T18:19:55.098Z,15.48
2023-01-09T18:22:26.782Z,15.84
2023-01-09T18:24:57.385Z,15.41
2023-01-09T18:27:28.328Z,15.88
2023-01-09T18:30:00.600Z,16.10
2023-01-09T18:32:32.221Z,16.12
2023-01-09T18:35:03.126Z,16.35
2023-01-09T18:37:35.095Z,15.46
2023-01-09T18:40:07.423Z,16.24
2023-01-09T18:42:39.390Z,16.04
2023-01-09T18:45:11.267Z,15.66
2023-01-09T18:47:41.824Z,15.70
2023-01-09T18:50:12.819Z,16.11
2023-01-09T18:52:44.184Z,15.63
2023-01-09T18:55:14.807Z,15.79
2023-01-09T18:57:45.458Z,15.68
2023-01-09T19:00:16.586Z,16.57
2023-01-09T19:02:47.130Z,16.61
2023-01-09T19:05:17.753Z,15.83
2023-01-09T19:07:49.408Z,15.83
2023-01-09T19:10:21.174Z,15.87
2023-01-09T19:12:51.742Z,16.26
2023-01-09T19:15:22.357Z,16.29
2023-01-09T19:17:53.065Z,16.01
2023-01-09T19:20:23.939Z,16.05
2023-01-09T19:22:57.174Z,16.62
2023-01-09T19:25:27.797Z,16.71
2023-01-09T19:28:00.008Z,15.90
2023-01-09T19:30:31.653Z,16.01
2023-01-09T19:33:02.171Z,15.92
2023-01-09T19:35:33.960Z,15.92
2023-01-09T19:38:04.734Z,15.77
2023-01-09T19:40:36.715Z,15.68
2023-01-09T19:43:07.265Z,16.05
2023-01-09T19:45:42.164Z,16.30
2023-01-09T19:48:12.697Z,16.07
2023-01-09T19:50:44.254Z,15.31
2023-01-09T19:53:14.790Z,16.27
2023-01-09T19:55:45.398Z,16.10
2023-01-09T19:58:15.979Z,16.53
2023-01-09T20:00:46.601Z,16.39
2023-01-09T20:03:17.205Z,16.01
2023-01-09T20:05:47.815Z,16.10
2023-01-09T20:08:19.416Z,16.79
2023-01-09T20:10:50.013Z,16.51
2023-01-09T20:13:20.566Z,15.96
2023-01-09T20:15:51.132Z,16.75
2023-01-09T20:18:21.703Z,16.52
2023-01-09T20:20:53.208Z,16.18
2023-01-09T20:23:27.598Z,16.75
2023-01-09T20:25:59.918Z,16.20
2023-01-09T20:28:30.634Z,16.26
2023-01-09T20:31:01.216Z,16.02
2023-01-09T20:33:31.769Z,15.36
2023-01-09T20:36:02.926Z,16.61
2023-01-09T20:38:34.381Z,16.38
2023-01-09T20:41:10.087Z,16.40
2023-01-09T20:43:40.908Z,16.90
2023-01-09T20:46:11.507Z,16.42
2023-01-09T20:48:42.118Z,15.64
2023-01-09T20:51:13.898Z,17.12
2023-01-09T20:53:50.430Z,17.06
2023-01-09T20:56:21.018Z,16.93
2023-01-09T20:58:53.105Z,16.91
2023-01-09T21:01:24.399Z,16.03
2023-01-09T21:03:57.373Z,16.48
2023-01-09T21:06:28.488Z,16.51
2023-01-09T21:08:59.150Z,16.58
2023-01-09T21:11:29.665Z,16.89
2023-01-09T21:14:00.215Z,16.93
2023-01-09T21:16:30.846Z,16.51
2023-01-09T21:19:01.438Z,16.80
2023-01-09T21:21:32.035Z,17.01
2023-01-09T21:24:04.093Z,16.70
2023-01-09T21:26:34.782Z,16.80
2023-01-09T21:29:06.901Z,16.73
2023-01-09T21:31:37.510Z,16.25
2023-01-09T21:34:12.916Z,16.77
2023-01-09T21:36:44.302Z,16.29
2023-01-09T21:39:14.717Z,16.01
2023-01-09T21:42:03.070Z,16.03
2023-01-09T21:44:52.710Z,16.49
2023-01-09T21:47:24.401Z,16.56
2023-01-09T21:49:55.984Z,16.11
2023-01-09T21:52:26.592Z,16.49
2023-01-09T21:54:57.997Z,16.28
2023-01-09T21:57:28.520Z,16.33
2023-01-09T21:59:59.099Z,16.75
2023-01-09T22:02:29.631Z,16.84
2023-01-09T22:05:01.395Z,16.48
2023-01-09T22:07:31.941Z,16.49
2023-01-09T22:10:04.666Z,16.78
2023-01-09T22:12:35.562Z,16.99
2023-01-09T22:15:07.928Z,16.88
2023-01-09T22:17:38.473Z,16.31
2023-01-09T22:20:10.354Z,17.00
2023-01-09T22:22:40.915Z,16.83
2023-01-09T22:25:11.706Z,16.32
2023-01-09T22:27:44.018Z,16.39
2023-01-09T22:30:15.874Z,16.39
2023-01-09T22:32:46.467Z,16.89
2023-01-09T22:35:17.167Z,16.53
2023-01-09T22:37:47.755Z,16.16
2023-01-09T22:40:19.430Z,16.35
2023-01-09T22:42:54.289Z,16.07
2023-01-09T22:45:26.160Z,15.58
2023-01-09T22:47:57.427Z,15.99
2023-01-09T22:50:27.985Z,15.54
2023-01-09T22:52:58.635Z,15.97
2023-01-09T22:55:29.150Z,16.29
2023-01-09T22:57:59.827Z,15.76
2023-01-09T23:00:30.730Z,15.71
2023-01-09T23:07:01.410Z,15.04
2023-01-09T23:09:31.625Z,14.90
2023-01-09T23:12:05.693Z,14.89
2023-01-09T23:14:38.580Z,15.04
2023-01-09T23:17:11.699Z,15.55
2023-01-09T23:19:42.264Z,16.08
2023-01-09T23:22:12.791Z,15.90
2023-01-09T23:24:43.377Z,15.37
2023-01-09T23:27:13.871Z,15.48
2023-01-09T23:29:44.429Z,15.56
2023-01-09T23:32:14.981Z,15.40
2023-01-09T23:34:47.141Z,15.76
2023-01-09T23:37:17.840Z,16.23
2023-01-09T23:39:48.433Z,15.86
2023-01-09T23:42:36.719Z,16.21
2023-01-09T23:45:07.759Z,16.30
2023-01-09T23:47:40.960Z,15.96
2023-01-09T23:50:12.744Z,15.40
2023-01-09T23:52:43.279Z,15.44
2023-01-09T23:55:15.175Z,15.35
2023-01-09T23:57:45.673Z,15.61
